Terminal Aerodrome Forecast
Issued by NWS Green Bay, WI

Home | Current Version | Previous Version | Graphics & Text | Print | Product List | Glossary On
Versions: 1 2 3 4 5 6 7 8 9 10 11 12 13 14 15 16 17 18 19 20 21 22 23 24 25 26 27 28 29 30 31 32 33 34 35 36 37 38 39 40 41
000
FTUS43 KGRB 292308 AAB
TAFGRB
TAF AMD
KGRB 292308Z 2923/3018 18010G16KT P6SM VCSH SCT035 BKN080
     FM300400 27006KT 5SM -SHRA BR BKN025 OVC035
     FM300600 36007KT 3SM RA BR OVC012
     FM301000 02015G22KT 6SM -SHRA SCT009 OVC020
     FM301500 02014G22KT P6SM BKN035=

USA.gov is the U.S. government's official web portal to all federal, state and local government web resources and services.